Time;durP1;ratioP1;P1;durP2;ratioP2;P2;SDS_P1;SDS_P2;PMS_P1;PMS_P2;Temp;Humidity;BMP_temperature;BMP_pressure;BME280_temperature;BME280_humidity;BME280_pressure;Samples;Min_cycle;Max_cycle;Signal;HPM_P1;HPM_P2
2023/03/10 00:00:34;;;;;;;1.88;0.80;;;11.70;99.90;;;;;;5023623;28;20090;-80
2023/03/10 00:03:01;;;;;;;2.20;0.90;;;11.60;99.90;;;;;;5020950;28;20061;-81
2023/03/10 00:05:28;;;;;;;1.05;0.90;;;11.60;99.90;;;;;;5025480;28;20041;-82
2023/03/10 00:07:54;;;;;;;2.47;0.90;;;11.60;99.90;;;;;;5018159;28;20100;-82
2023/03/10 00:10:21;;;;;;;1.95;0.90;;;11.60;99.90;;;;;;5015595;28;20046;-82
2023/03/10 00:12:48;;;;;;;2.50;0.82;;;11.50;99.90;;;;;;5017807;28;20050;-83
2023/03/10 00:15:14;;;;;;;2.05;0.75;;;11.50;99.90;;;;;;5012841;28;20049;-81
2023/03/10 00:17:41;;;;;;;2.50;0.90;;;11.50;99.90;;;;;;5015213;28;20049;-81
2023/03/10 00:20:11;;;;;;;2.67;0.82;;;11.50;99.90;;;;;;5011840;28;20189;-81
2023/03/10 00:22:40;;;;;;;3.05;0.85;;;11.50;99.90;;;;;;5026502;28;20088;-81
2023/03/10 00:25:08;;;;;;;1.90;0.97;;;11.50;99.90;;;;;;5019645;28;20049;-82
2023/03/10 00:27:35;;;;;;;1.40;0.80;;;11.50;99.90;;;;;;5013102;28;20132;-81
2023/03/10 00:30:03;;;;;;;3.35;0.70;;;11.50;99.90;;;;;;5015406;28;20416;-81
2023/03/10 00:32:30;;;;;;;3.35;0.80;;;11.50;99.90;;;;;;5016067;28;20044;-81
2023/03/10 00:34:57;;;;;;;2.55;0.85;;;11.50;99.90;;;;;;5017982;28;20489;-82
2023/03/10 00:37:23;;;;;;;4.38;0.80;;;11.50;99.90;;;;;;5022453;28;20042;-81
2023/03/10 00:39:51;;;;;;;1.13;0.60;;;11.50;99.90;;;;;;5022504;28;20045;-81
2023/03/10 00:42:19;;;;;;;2.35;0.82;;;11.50;99.90;;;;;;5014711;28;20056;-81
2023/03/10 00:44:46;;;;;;;1.38;0.60;;;11.50;99.90;;;;;;5018175;28;20060;-81
2023/03/10 00:47:12;;;;;;;2.83;0.75;;;11.50;99.90;;;;;;5017947;28;20050;-81
2023/03/10 00:49:39;;;;;;;1.42;0.70;;;11.50;99.90;;;;;;5020820;28;20050;-83
2023/03/10 00:52:06;;;;;;;1.75;0.65;;;11.50;99.90;;;;;;5016529;28;20046;-82
2023/03/10 00:54:32;;;;;;;1.33;0.80;;;11.50;99.90;;;;;;5018276;28;20133;-82
2023/03/10 00:56:59;;;;;;;3.72;0.73;;;11.50;99.90;;;;;;5016617;28;20519;-81
2023/03/10 00:59:26;;;;;;;2.20;0.70;;;11.40;99.90;;;;;;5017068;28;20042;-82
2023/03/10 01:01:55;;;;;;;1.17;0.75;;;11.40;99.90;;;;;;5010724;28;20125;-81
2023/03/10 01:04:21;;;;;;;1.67;0.60;;;11.40;99.90;;;;;;5014587;28;20108;-80
2023/03/10 01:06:48;;;;;;;1.27;0.57;;;11.40;99.90;;;;;;5016300;28;20069;-81
2023/03/10 01:09:15;;;;;;;1.42;0.70;;;11.30;99.90;;;;;;5017136;28;20046;-81
2023/03/10 01:11:42;;;;;;;1.25;0.60;;;11.30;99.90;;;;;;5017094;28;20041;-81
2023/03/10 01:14:12;;;;;;;0.47;0.40;;;11.20;99.90;;;;;;5015208;28;20045;-81
2023/03/10 01:16:39;;;;;;;;;;;11.20;99.90;;;;;;5019562;28;20061;-81
2023/03/10 01:19:05;;;;;;;3.00;0.70;;;11.10;99.90;;;;;;5012613;28;19921;-81
2023/03/10 01:21:35;;;;;;;1.92;0.75;;;11.20;99.90;;;;;;5023657;28;20051;-81
2023/03/10 01:24:02;;;;;;;0.80;0.30;;;11.10;99.90;;;;;;5015819;28;20421;-81
2023/03/10 01:26:29;;;;;;;0.93;0.80;;;11.10;99.90;;;;;;5025757;28;20045;-81
2023/03/10 01:28:56;;;;;;;2.13;0.60;;;11.10;99.90;;;;;;5022887;28;20050;-81
2023/03/10 01:31:23;;;;;;;1.75;0.57;;;11.10;99.90;;;;;;5020744;28;20046;-81
2023/03/10 01:33:50;;;;;;;1.73;0.60;;;11.10;99.90;;;;;;5026265;28;20042;-80
2023/03/10 01:36:24;;;;;;;1.13;0.50;;;11.10;99.90;;;;;;5024295;28;20072;-81
2023/03/10 01:38:53;;;;;;;1.60;0.45;;;11.10;99.90;;;;;;5021718;28;20050;-83
2023/03/10 01:41:21;;;;;;;2.95;0.73;;;11.10;99.90;;;;;;5021443;28;20048;-82
2023/03/10 01:43:55;;;;;;;3.40;0.68;;;11.10;99.90;;;;;;5024661;28;20053;-83
2023/03/10 01:46:40;;;;;;;1.10;0.50;;;11.10;99.90;;;;;;5026760;28;20071;-81
2023/03/10 01:49:19;;;;;;;1.35;0.45;;;11.10;99.90;;;;;;5028909;28;20046;-81
2023/03/10 01:51:50;;;;;;;1.20;0.77;;;11.10;99.90;;;;;;5025890;28;20076;-81
2023/03/10 01:54:23;;;;;;;1.88;0.60;;;11.20;99.90;;;;;;5025905;28;20073;-81
2023/03/10 01:56:52;;;;;;;1.23;0.47;;;11.20;99.90;;;;;;5013982;28;20589;-82
2023/03/10 01:59:19;;;;;;;0.97;0.50;;;11.20;99.90;;;;;;5020877;28;20056;-82
2023/03/10 02:01:49;;;;;;;1.95;0.70;;;11.20;99.90;;;;;;5017645;28;20054;-83
2023/03/10 02:04:22;;;;;;;1.35;0.40;;;11.30;99.90;;;;;;5014466;28;20058;-81
2023/03/10 02:06:50;;;;;;;1.27;0.60;;;11.30;99.90;;;;;;5022720;28;20524;-81
2023/03/10 02:09:17;;;;;;;0.63;0.40;;;11.30;99.90;;;;;;5035136;28;20426;-82
2023/03/10 02:11:47;;;;;;;4.10;0.77;;;11.30;99.90;;;;;;5027358;28;20057;-81
2023/03/10 02:14:14;;;;;;;1.20;0.43;;;11.30;99.90;;;;;;5028124;28;20042;-79
2023/03/10 02:16:40;;;;;;;2.17;0.63;;;11.30;99.90;;;;;;5027992;28;20049;-80
2023/03/10 02:19:17;;;;;;;1.95;0.45;;;11.30;99.90;;;;;;5016767;28;20108;-81
2023/03/10 02:21:51;;;;;;;0.63;0.35;;;11.30;99.90;;;;;;5039819;28;20060;-81
2023/03/10 02:24:20;;;;;;;0.95;0.40;;;11.30;99.90;;;;;;5022423;28;20049;-81
2023/03/10 02:27:21;;;;;;;0.57;0.40;;;11.40;99.90;;;;;;5016878;28;20465;-81
2023/03/10 02:29:51;;;;;;;1.77;0.57;;;11.40;99.90;;;;;;5031544;28;20316;-82
2023/03/10 02:32:28;;;;;;;1.90;0.45;;;11.40;99.90;;;;;;5030873;28;20542;-80
2023/03/10 02:34:55;;;;;;;1.92;0.40;;;11.40;99.90;;;;;;5024410;28;20137;-82
2023/03/10 02:37:29;;;;;;;0.60;0.50;;;11.40;99.90;;;;;;5018637;28;20042;-83
2023/03/10 02:39:56;;;;;;;1.40;0.52;;;11.30;99.90;;;;;;5018231;28;20050;-82
2023/03/10 02:42:31;;;;;;;1.95;0.50;;;11.30;99.90;;;;;;5017922;28;20060;-81
2023/03/10 02:44:58;;;;;;;1.63;0.68;;;11.30;99.90;;;;;;5016444;28;20058;-83
2023/03/10 02:47:25;;;;;;;1.23;0.63;;;11.40;99.90;;;;;;5019999;28;20128;-82
2023/03/10 02:49:52;;;;;;;2.05;0.60;;;11.40;99.90;;;;;;5018917;28;20061;-82
2023/03/10 02:52:35;;;;;;;2.80;1.10;;;11.40;99.90;;;;;;5019656;28;20049;-82
2023/03/10 02:55:01;;;;;;;3.67;0.80;;;11.40;99.90;;;;;;5023448;28;20046;-81
2023/03/10 02:57:28;;;;;;;1.60;0.55;;;11.40;99.90;;;;;;5015793;28;20118;-83
2023/03/10 02:59:55;;;;;;;1.75;0.55;;;11.40;99.90;;;;;;5017489;28;20054;-82
2023/03/10 03:02:22;;;;;;;1.25;0.50;;;11.40;99.90;;;;;;5016898;28;20057;-81
2023/03/10 03:04:48;;;;;;;1.92;0.75;;;11.40;99.90;;;;;;5019158;28;20162;-81
2023/03/10 03:07:15;;;;;;;2.92;0.60;;;11.50;99.90;;;;;;5021869;28;20076;-82
2023/03/10 03:09:41;;;;;;;3.38;0.93;;;11.50;99.90;;;;;;5018916;28;20065;-81
2023/03/10 03:12:08;;;;;;;1.15;0.73;;;11.40;99.90;;;;;;5018342;28;20129;-79
2023/03/10 03:14:35;;;;;;;2.55;0.73;;;11.50;99.90;;;;;;5022016;28;20052;-81
2023/03/10 03:17:02;;;;;;;1.77;0.70;;;11.40;99.90;;;;;;5020152;28;20046;-81
2023/03/10 03:19:28;;;;;;;2.33;0.68;;;11.40;99.90;;;;;;5017550;28;20042;-80
2023/03/10 03:21:55;;;;;;;2.83;0.70;;;11.40;99.90;;;;;;5019346;28;20049;-83
2023/03/10 03:24:22;;;;;;;3.38;0.60;;;11.40;99.90;;;;;;5042491;28;20137;-82
2023/03/10 03:26:49;;;;;;;1.17;0.55;;;11.40;99.90;;;;;;5017935;28;20136;-81
2023/03/10 03:29:16;;;;;;;1.13;0.70;;;11.40;99.90;;;;;;5022700;28;20133;-83
2023/03/10 03:31:43;;;;;;;2.30;0.60;;;11.30;99.90;;;;;;5018627;28;20054;-81
2023/03/10 03:34:10;;;;;;;2.70;1.00;;;11.30;99.90;;;;;;5015983;28;20077;-81
2023/03/10 03:36:37;;;;;;;1.00;0.50;;;11.20;99.90;;;;;;5020432;28;20049;-81
2023/03/10 03:39:05;;;;;;;2.05;0.60;;;11.20;99.90;;;;;;5033893;28;20433;-84
2023/03/10 03:41:33;;;;;;;1.65;0.70;;;11.20;99.90;;;;;;5017411;28;20050;-82
2023/03/10 03:43:59;;;;;;;2.58;0.75;;;11.10;99.90;;;;;;5013277;28;20050;-80
2023/03/10 03:46:26;;;;;;;1.27;0.70;;;11.10;99.90;;;;;;5014565;28;20072;-82
2023/03/10 03:48:53;;;;;;;3.83;0.65;;;11.10;99.90;;;;;;5013124;28;20138;-81
2023/03/10 03:51:20;;;;;;;1.98;0.40;;;11.00;99.90;;;;;;5025424;28;20053;-79
2023/03/10 03:53:46;;;;;;;2.05;0.60;;;11.00;99.90;;;;;;5025118;28;20048;-80
2023/03/10 03:56:13;;;;;;;1.95;0.80;;;11.10;99.90;;;;;;5028827;28;20543;-81
2023/03/10 03:58:39;;;;;;;3.72;0.65;;;11.10;99.90;;;;;;5033423;28;20118;-81
2023/03/10 04:01:06;;;;;;;2.65;0.70;;;11.20;99.90;;;;;;5025948;28;20046;-81
2023/03/10 04:03:33;;;;;;;3.17;0.68;;;11.20;99.90;;;;;;5033133;28;20106;-83
2023/03/10 04:06:00;;;;;;;1.05;0.60;;;11.20;99.90;;;;;;5032940;28;20046;-81
2023/03/10 04:08:27;;;;;;;3.03;0.70;;;11.20;99.90;;;;;;5033484;28;20042;-81
2023/03/10 04:10:54;;;;;;;2.25;0.85;;;11.30;99.90;;;;;;5030519;28;20055;-80
2023/03/10 04:13:20;;;;;;;1.10;0.50;;;11.30;99.90;;;;;;5026518;28;20060;-81
2023/03/10 04:15:47;;;;;;;2.70;0.40;;;11.40;99.90;;;;;;5015370;28;20045;-82
2023/03/10 04:18:14;;;;;;;1.98;0.73;;;11.40;99.90;;;;;;5015784;28;20041;-82
2023/03/10 04:20:41;;;;;;;3.10;1.23;;;11.40;99.90;;;;;;5022435;28;20065;-81
2023/03/10 04:23:07;;;;;;;0.50;0.50;;;11.40;99.90;;;;;;5012886;28;20054;-81
2023/03/10 04:25:35;;;;;;;1.58;0.47;;;11.40;99.90;;;;;;5010793;28;20042;-80
2023/03/10 04:28:01;;;;;;;1.17;0.50;;;11.50;99.90;;;;;;5014479;28;20081;-81
2023/03/10 04:30:28;;;;;;;1.33;0.50;;;11.50;99.90;;;;;;5005408;28;20046;-81
2023/03/10 04:32:59;;;;;;;1.08;0.40;;;11.50;99.90;;;;;;5018622;28;20056;-81
2023/03/10 04:35:27;;;;;;;0.52;0.35;;;11.50;99.90;;;;;;5020065;28;21049;-83
2023/03/10 04:37:53;;;;;;;0.40;0.40;;;11.50;99.90;;;;;;5017582;28;20052;-82
2023/03/10 04:40:20;;;;;;;2.00;0.60;;;11.50;99.90;;;;;;5016380;28;20050;-82
2023/03/10 04:42:47;;;;;;;1.88;0.60;;;11.50;99.90;;;;;;5015470;28;20053;-81
2023/03/10 04:45:14;;;;;;;1.55;0.80;;;11.50;99.90;;;;;;5021810;28;20088;-81
2023/03/10 04:47:40;;;;;;;1.38;0.40;;;11.50;99.90;;;;;;5020331;28;20053;-79
2023/03/10 04:50:10;;;;;;;1.98;0.30;;;11.50;99.90;;;;;;5020717;28;20052;-80
2023/03/10 04:52:37;;;;;;;2.10;0.60;;;11.50;99.90;;;;;;5019127;28;20567;-81
2023/03/10 04:55:04;;;;;;;2.00;0.50;;;11.60;99.90;;;;;;5024130;28;20364;-80
2023/03/10 04:57:31;;;;;;;1.88;0.45;;;11.50;99.90;;;;;;5016293;28;20734;-81
2023/03/10 04:59:57;;;;;;;3.33;0.63;;;11.50;99.90;;;;;;5023381;28;20054;-81
2023/03/10 05:02:28;;;;;;;1.17;0.43;;;11.50;99.90;;;;;;5017792;28;20053;-79
2023/03/10 05:04:55;;;;;;;0.73;0.40;;;11.60;99.90;;;;;;5015793;28;20081;-81
2023/03/10 05:07:22;;;;;;;0.90;0.38;;;11.60;99.90;;;;;;5015311;28;20521;-81
2023/03/10 05:09:49;;;;;;;4.35;0.75;;;11.60;99.90;;;;;;5019828;28;20068;-80
2023/03/10 05:12:16;;;;;;;0.40;0.40;;;11.60;99.90;;;;;;5015277;28;20052;-83
2023/03/10 05:14:42;;;;;;;0.80;0.50;;;11.60;99.90;;;;;;5016152;28;20053;-81
2023/03/10 05:17:10;;;;;;;0.80;0.30;;;11.60;99.90;;;;;;5017191;28;20050;-81
2023/03/10 05:19:37;;;;;;;2.38;0.43;;;11.60;99.90;;;;;;5015751;28;20054;-81
2023/03/10 05:22:06;;;;;;;0.98;0.40;;;11.60;99.90;;;;;;5021644;28;20050;-80
2023/03/10 05:24:33;;;;;;;0.98;0.60;;;11.50;99.90;;;;;;5015240;28;20052;-81
2023/03/10 05:27:01;;;;;;;0.95;0.40;;;11.60;99.90;;;;;;5018006;28;20057;-82
2023/03/10 05:29:28;;;;;;;1.38;0.30;;;11.60;99.90;;;;;;5016474;28;20169;-81
2023/03/10 05:31:55;;;;;;;3.03;0.50;;;11.60;99.90;;;;;;5024412;28;20053;-81
2023/03/10 05:34:24;;;;;;;2.28;0.50;;;11.60;99.90;;;;;;5015551;28;20045;-81
2023/03/10 05:36:51;;;;;;;2.55;0.60;;;11.60;99.90;;;;;;5024014;28;20060;-81
2023/03/10 05:39:17;;;;;;;0.52;0.30;;;11.60;99.90;;;;;;5021695;28;20049;-82
2023/03/10 05:41:44;;;;;;;0.57;0.38;;;11.60;99.90;;;;;;5021525;28;20114;-82
2023/03/10 05:44:11;;;;;;;1.90;0.57;;;11.60;99.90;;;;;;5024911;28;20050;-80
2023/03/10 05:46:37;;;;;;;1.15;0.50;;;11.60;99.90;;;;;;5017352;28;20046;-81
2023/03/10 05:49:04;;;;;;;2.53;0.35;;;11.60;99.90;;;;;;5015189;28;20053;-81
2023/03/10 05:51:31;;;;;;;1.20;0.30;;;11.60;99.90;;;;;;5013300;28;20441;-80
2023/03/10 05:53:57;;;;;;;1.05;0.50;;;11.60;99.90;;;;;;5019583;28;20042;-81
2023/03/10 05:56:24;;;;;;;1.48;0.38;;;11.60;99.90;;;;;;5010238;28;20053;-81
2023/03/10 05:58:51;;;;;;;3.40;0.50;;;11.50;99.90;;;;;;5014636;28;20114;-81
2023/03/10 06:01:18;;;;;;;1.35;0.43;;;11.50;99.90;;;;;;5012706;28;20461;-82
2023/03/10 06:03:45;;;;;;;4.25;1.30;;;11.40;99.90;;;;;;5017656;28;20061;-81
2023/03/10 06:06:12;;;;;;;2.63;1.20;;;11.40;99.90;;;;;;5011384;28;20420;-82
2023/03/10 06:08:39;;;;;;;1.60;0.60;;;11.40;99.90;;;;;;5013260;28;20088;-81
2023/03/10 06:11:06;;;;;;;3.55;0.52;;;11.40;99.90;;;;;;5017860;28;20379;-79
2023/03/10 06:13:32;;;;;;;0.40;0.40;;;11.40;99.90;;;;;;5016593;28;20048;-84
2023/03/10 06:16:02;;;;;;;2.25;1.13;;;11.40;99.90;;;;;;5015738;28;20137;-81
2023/03/10 06:18:29;;;;;;;4.18;0.57;;;11.40;99.90;;;;;;5015936;28;20052;-81
2023/03/10 06:20:56;;;;;;;1.27;0.47;;;11.40;99.90;;;;;;5024968;28;20046;-80
2023/03/10 06:23:24;;;;;;;0.28;0.28;;;11.40;99.90;;;;;;5023495;28;20056;-81
2023/03/10 06:25:57;;;;;;;2.55;0.30;;;11.40;99.90;;;;;;5024332;28;20133;-81
2023/03/10 06:28:25;;;;;;;0.40;0.30;;;11.40;99.90;;;;;;5013268;28;20144;-81
2023/03/10 06:30:56;;;;;;;0.10;0.10;;;11.40;99.90;;;;;;5017297;28;20050;-80
2023/03/10 06:33:24;;;;;;;0.57;0.45;;;11.40;99.90;;;;;;5011462;28;20310;-81
2023/03/10 06:35:51;;;;;;;0.93;0.45;;;11.30;99.90;;;;;;5016764;28;20054;-81
2023/03/10 06:38:19;;;;;;;0.73;0.20;;;11.30;99.90;;;;;;5032889;28;20509;-80
2023/03/10 06:40:46;;;;;;;0.40;0.20;;;11.30;99.90;;;;;;5020302;28;20104;-81
2023/03/10 06:43:13;;;;;;;2.40;0.50;;;11.30;99.90;;;;;;5016539;28;20524;-80
2023/03/10 06:45:41;;;;;;;1.63;0.30;;;11.30;99.90;;;;;;5014961;28;20077;-81
2023/03/10 06:48:12;;;;;;;0.60;0.30;;;11.30;99.90;;;;;;5030996;28;20108;-80
2023/03/10 06:50:41;;;;;;;0.50;0.50;;;11.30;99.90;;;;;;5022429;28;20057;-80
2023/03/10 06:53:09;;;;;;;1.10;0.30;;;11.30;99.90;;;;;;5017908;28;20433;-83
2023/03/10 06:55:36;;;;;;;0.28;0.28;;;11.30;99.90;;;;;;5021066;28;20053;-82
2023/03/10 06:58:03;;;;;;;1.90;0.38;;;11.20;99.90;;;;;;5027399;28;20048;-77
2023/03/10 07:00:30;;;;;;;2.90;0.32;;;11.20;99.90;;;;;;5025873;28;20057;-80
2023/03/10 07:02:57;;;;;;;0.20;0.20;;;11.20;99.90;;;;;;5027663;28;20046;-81
2023/03/10 07:05:26;;;;;;;0.85;0.35;;;11.20;99.90;;;;;;5019106;28;20075;-80
2023/03/10 07:07:55;;;;;;;0.82;0.40;;;11.20;99.90;;;;;;5016629;28;20497;-81
2023/03/10 07:10:22;;;;;;;1.63;0.50;;;11.20;99.90;;;;;;5021481;28;20045;-83
2023/03/10 07:12:53;;;;;;;2.67;0.65;;;11.20;99.90;;;;;;5018435;28;20042;-81
2023/03/10 07:15:25;;;;;;;2.38;0.70;;;11.20;99.90;;;;;;5018251;28;20049;-81
2023/03/10 07:17:54;;;;;;;3.70;0.43;;;11.20;99.90;;;;;;5018070;28;20056;-80
2023/03/10 07:20:23;;;;;;;1.63;0.77;;;11.20;99.90;;;;;;5010834;28;20054;-80
2023/03/10 07:22:50;;;;;;;1.58;0.47;;;11.20;99.90;;;;;;5017543;28;20133;-80
2023/03/10 07:25:17;;;;;;;3.55;0.60;;;11.20;99.90;;;;;;5010408;28;20049;-81
2023/03/10 07:27:43;;;;;;;4.25;0.70;;;11.20;99.90;;;;;;5016469;28;20100;-81
2023/03/10 07:30:10;;;;;;;3.83;1.15;;;11.10;99.90;;;;;;5027812;28;20524;-79
2023/03/10 07:32:37;;;;;;;3.05;0.65;;;11.10;99.90;;;;;;5019553;28;20046;-81
2023/03/10 07:35:05;;;;;;;4.75;1.30;;;11.10;99.90;;;;;;5027687;28;20050;-79
2023/03/10 07:37:31;;;;;;;4.82;1.20;;;11.10;99.90;;;;;;5014184;28;20045;-82
2023/03/10 07:39:58;;;;;;;2.40;1.00;;;11.10;99.90;;;;;;5021336;28;20065;-80
2023/03/10 07:42:25;;;;;;;3.33;0.70;;;11.10;99.90;;;;;;5012578;28;20056;-80
2023/03/10 07:44:51;;;;;;;2.03;0.77;;;11.10;99.90;;;;;;5031482;28;20054;-79
2023/03/10 07:47:18;;;;;;;1.88;0.60;;;11.20;99.90;;;;;;5016345;28;20054;-80
2023/03/10 07:49:45;;;;;;;1.27;0.50;;;11.20;99.90;;;;;;5020676;28;20057;-80
2023/03/10 07:52:14;;;;;;;2.97;0.70;;;11.20;99.90;;;;;;5015434;28;20073;-80
2023/03/10 07:54:43;;;;;;;1.05;0.50;;;11.20;99.90;;;;;;5015864;28;20046;-81
2023/03/10 07:57:11;;;;;;;1.95;0.60;;;11.20;99.90;;;;;;5032784;28;20100;-81
2023/03/10 07:59:38;;;;;;;1.48;0.40;;;11.20;99.90;;;;;;5019152;28;20064;-80
2023/03/10 08:02:05;;;;;;;1.50;0.50;;;11.20;99.90;;;;;;5014402;28;20078;-80
2023/03/10 08:04:32;;;;;;;1.55;0.60;;;11.20;99.90;;;;;;5016196;28;20048;-81
2023/03/10 08:07:01;;;;;;;1.55;0.70;;;11.20;99.90;;;;;;5019582;28;20053;-81
2023/03/10 08:09:28;;;;;;;1.85;0.70;;;11.20;99.90;;;;;;5029459;28;20045;-80
2023/03/10 08:11:58;;;;;;;2.17;0.55;;;11.20;99.90;;;;;;5020501;28;20110;-81
2023/03/10 08:14:27;;;;;;;1.80;0.60;;;11.20;99.90;;;;;;5016188;28;20049;-80
2023/03/10 08:16:57;;;;;;;1.10;0.47;;;11.10;99.90;;;;;;5023037;28;20398;-81
2023/03/10 08:19:25;;;;;;;9.57;1.38;;;11.10;99.90;;;;;;5014276;28;20050;-81
2023/03/10 08:21:56;;;;;;;5.25;0.73;;;11.10;99.90;;;;;;5021183;28;20041;-81
2023/03/10 08:24:24;;;;;;;6.53;1.35;;;11.00;99.90;;;;;;5018296;28;20081;-80
2023/03/10 08:26:51;;;;;;;5.43;1.00;;;10.90;99.90;;;;;;5025677;28;20049;-81
2023/03/10 08:29:17;;;;;;;3.05;0.88;;;11.00;99.90;;;;;;5026416;28;20053;-83
2023/03/10 08:31:44;;;;;;;4.05;1.05;;;10.90;99.90;;;;;;5011502;28;20044;-81
2023/03/10 08:34:12;;;;;;;5.00;1.25;;;11.00;99.90;;;;;;5012497;28;20046;-81
2023/03/10 08:36:39;;;;;;;2.88;1.20;;;10.90;99.90;;;;;;5008731;28;20493;-81
2023/03/10 08:39:07;;;;;;;10.23;1.85;;;11.00;99.90;;;;;;5009135;28;20050;-83
2023/03/10 08:41:44;;;;;;;7.47;1.42;;;10.90;99.90;;;;;;5014419;28;20064;-79
2023/03/10 08:44:14;;;;;;;7.10;1.83;;;11.00;99.90;;;;;;5013395;28;20128;-80
2023/03/10 08:46:42;;;;;;;4.32;1.25;;;11.00;99.90;;;;;;5011795;28;20046;-81
2023/03/10 08:49:14;;;;;;;8.27;1.95;;;10.90;99.90;;;;;;5012033;28;20045;-80
2023/03/10 08:51:41;;;;;;;8.43;1.80;;;11.00;99.90;;;;;;5018399;28;20042;-81
2023/03/10 08:54:09;;;;;;;7.78;1.90;;;11.00;99.90;;;;;;5015378;28;20042;-79
2023/03/10 08:56:36;;;;;;;6.03;1.42;;;11.10;99.90;;;;;;5016113;28;20138;-81
2023/03/10 08:59:03;;;;;;;6.40;1.55;;;11.10;99.90;;;;;;5020150;28;20064;-80
2023/03/10 09:01:32;;;;;;;5.38;1.20;;;11.20;99.90;;;;;;5013989;28;20041;-81
2023/03/10 09:04:00;;;;;;;8.55;1.90;;;11.20;99.90;;;;;;5023070;28;20076;-81
2023/03/10 09:06:27;;;;;;;7.10;1.65;;;11.30;99.90;;;;;;5015658;28;20050;-82
2023/03/10 09:08:54;;;;;;;6.60;1.80;;;11.30;99.90;;;;;;5022064;28;20048;-80
2023/03/10 09:11:30;;;;;;;6.00;1.15;;;11.30;99.90;;;;;;5016180;28;20045;-84
2023/03/10 09:13:58;;;;;;;8.10;1.77;;;11.40;99.90;;;;;;5013203;28;20061;-80
2023/03/10 09:16:27;;;;;;;5.93;1.55;;;11.30;99.90;;;;;;5013752;28;20418;-82
2023/03/10 09:18:55;;;;;;;5.07;1.27;;;11.40;99.90;;;;;;5018896;28;20042;-81
2023/03/10 09:21:22;;;;;;;8.23;1.30;;;11.40;99.90;;;;;;5012787;28;20056;-81
2023/03/10 09:23:51;;;;;;;6.70;2.30;;;11.40;99.90;;;;;;5013597;28;20062;-80
2023/03/10 09:26:19;;;;;;;7.75;1.42;;;11.40;99.90;;;;;;5016287;28;20050;-81
2023/03/10 09:28:48;;;;;;;6.57;1.30;;;11.40;99.90;;;;;;5013452;28;20046;-81
2023/03/10 09:31:33;;;;;;;7.70;1.85;;;11.40;99.90;;;;;;5014489;28;20121;-81
2023/03/10 09:34:01;;;;;;;4.85;1.50;;;11.30;99.90;;;;;;5016068;28;20046;-83
2023/03/10 09:36:28;;;;;;;7.55;1.88;;;11.30;99.90;;;;;;5013854;28;20054;-81
2023/03/10 09:38:57;;;;;;;6.00;1.30;;;11.30;99.90;;;;;;5018549;28;20045;-80
2023/03/10 09:41:52;;;;;;;4.93;1.60;;;11.30;99.90;;;;;;5015499;28;20065;-80
2023/03/10 09:44:41;;;;;;;5.75;1.27;;;11.20;99.90;;;;;;5017641;28;20049;-80
2023/03/10 09:47:08;;;;;;;5.13;1.20;;;11.20;99.90;;;;;;5006800;28;20049;-82
2023/03/10 09:49:48;;;;;;;4.03;0.93;;;11.20;99.90;;;;;;5015828;28;20060;-81
2023/03/10 09:52:23;;;;;;;5.53;1.20;;;11.20;99.90;;;;;;5016356;28;20109;-82
2023/03/10 09:55:00;;;;;;;2.63;0.88;;;11.10;99.90;;;;;;5012794;28;20044;-81
2023/03/10 09:57:30;;;;;;;4.95;0.85;;;11.10;99.90;;;;;;5027936;28;20076;-82
2023/03/10 10:00:04;;;;;;;2.83;1.10;;;11.10;99.90;;;;;;5006939;28;20116;-80
2023/03/10 10:02:40;;;;;;;4.20;0.98;;;11.10;99.90;;;;;;5009577;28;20056;-81
2023/03/10 10:05:30;;;;;;;5.63;1.42;;;11.10;99.90;;;;;;5032269;28;20056;-80
2023/03/10 10:08:00;;;;;;;2.75;0.80;;;11.10;99.90;;;;;;5013453;28;20482;-79
2023/03/10 10:10:30;;;;;;;4.10;0.80;;;11.10;99.90;;;;;;5006584;28;20054;-82
2023/03/10 10:13:01;;;;;;;2.70;0.60;;;11.10;99.90;;;;;;5026163;28;20413;-80
2023/03/10 10:15:30;;;;;;;2.40;0.60;;;11.10;99.90;;;;;;5017157;28;20100;-82
2023/03/10 10:18:41;;;;;;;4.25;0.57;;;11.10;99.90;;;;;;5017361;28;20389;-81
2023/03/10 10:21:23;;;;;;;2.40;0.60;;;11.10;99.90;;;;;;5001601;28;20128;-80
2023/03/10 10:23:58;;;;;;;2.25;0.60;;;11.10;99.90;;;;;;5025504;28;20463;-80
2023/03/10 10:26:26;;;;;;;1.55;0.80;;;11.20;99.90;;;;;;5019855;28;20053;-81
2023/03/10 10:28:55;;;;;;;1.95;0.52;;;11.30;99.90;;;;;;5022413;28;20045;-81
2023/03/10 10:31:26;;;;;;;1.52;0.65;;;11.30;99.90;;;;;;5021180;28;20099;-82
2023/03/10 10:34:20;;;;;;;2.55;0.75;;;11.30;99.90;;;;;;5023659;28;20562;-80
2023/03/10 10:36:55;;;;;;;1.67;0.30;;;11.30;99.90;;;;;;5020419;28;20038;-81
2023/03/10 10:39:32;;;;;;;2.20;0.40;;;11.20;99.90;;;;;;5011069;28;20494;-80
2023/03/10 10:42:24;;;;;;;0.82;0.38;;;11.20;99.90;;;;;;5013429;28;20109;-81
2023/03/10 10:45:01;;;;;;;1.33;0.70;;;11.10;99.90;;;;;;5011729;28;20057;-81
2023/03/10 10:47:30;;;;;;;1.52;0.70;;;11.20;99.90;;;;;;5030954;28;20077;-80
2023/03/10 10:50:20;;;;;;;0.93;0.47;;;11.20;99.90;;;;;;5017191;28;20468;-82
2023/03/10 10:52:49;;;;;;;0.90;0.38;;;11.10;99.90;;;;;;5016104;28;20042;-80
2023/03/10 10:55:26;;;;;;;3.38;0.43;;;11.20;99.90;;;;;;5014642;28;20056;-81
2023/03/10 10:57:56;;;;;;;1.60;0.60;;;11.30;99.90;;;;;;5012375;28;20042;-82
2023/03/10 11:00:30;;;;;;;3.45;1.65;;;11.30;99.90;;;;;;5018332;28;20460;-81
2023/03/10 11:02:56;;;;;;;2.47;1.02;;;11.30;99.90;;;;;;5020124;28;20066;-81
2023/03/10 11:05:36;;;;;;;1.30;0.60;;;11.30;99.90;;;;;;5024042;28;20050;-81
2023/03/10 11:08:33;;;;;;;1.60;0.77;;;11.40;99.90;;;;;;5027204;28;20077;-80
2023/03/10 11:11:39;;;;;;;3.55;0.63;;;11.30;99.90;;;;;;5010133;28;20451;-82
2023/03/10 11:14:11;;;;;;;0.90;0.40;;;11.30;99.90;;;;;;4955268;28;20039;-81
2023/03/10 11:16:56;;;;;;;1.45;0.70;;;11.30;99.90;;;;;;5015403;28;20156;-84
2023/03/10 11:19:32;;;;;;;0.55;0.50;;;11.20;99.90;;;;;;5020168;28;20790;-81
2023/03/10 11:22:06;;;;;;;0.50;0.40;;;11.30;99.90;;;;;;5011838;28;20078;-81
2023/03/10 11:24:50;;;;;;;0.98;0.32;;;11.30;99.90;;;;;;5015205;28;20460;-82
2023/03/10 11:27:34;;;;;;;0.93;0.40;;;11.30;99.90;;;;;;5015486;28;20423;-82
2023/03/10 11:30:16;;;;;;;1.02;0.40;;;11.30;99.90;;;;;;5014896;28;20105;-81
2023/03/10 11:33:11;;;;;;;1.17;0.68;;;11.30;99.90;;;;;;5018751;28;20054;-80
2023/03/10 11:35:45;;;;;;;1.20;0.32;;;11.30;99.90;;;;;;5016029;28;20045;-80
2023/03/10 11:38:28;;;;;;;3.30;0.70;;;11.30;99.90;;;;;;5018563;28;20062;-79
2023/03/10 11:41:01;;;;;;;0.30;0.30;;;11.20;99.90;;;;;;5017914;28;20050;-83
2023/03/10 11:43:38;;;;;;;0.55;0.40;;;11.10;99.90;;;;;;5019656;28;20049;-81
2023/03/10 11:46:28;;;;;;;0.80;0.60;;;11.10;99.90;;;;;;5015903;28;20518;-81
2023/03/10 11:49:08;;;;;;;0.85;0.50;;;10.80;99.90;;;;;;5017028;28;20042;-84
2023/03/10 11:51:54;;;;;;;0.68;0.30;;;10.90;99.90;;;;;;5014228;28;20505;-80
2023/03/10 11:54:32;;;;;;;2.97;0.55;;;10.80;99.90;;;;;;5017882;28;20046;-79
2023/03/10 11:57:09;;;;;;;1.23;0.38;;;10.90;99.90;;;;;;5011919;28;20125;-80
2023/03/10 11:59:46;;;;;;;1.50;0.40;;;10.90;99.90;;;;;;5011733;28;20046;-81
2023/03/10 12:02:20;;;;;;;2.85;0.50;;;10.90;99.90;;;;;;5015943;28;20460;-80
2023/03/10 12:05:22;;;;;;;0.32;0.32;;;11.00;99.90;;;;;;5014968;28;20056;-80
2023/03/10 12:07:52;;;;;;;0.70;0.35;;;11.00;99.90;;;;;;5012698;28;20049;-83
2023/03/10 12:10:20;;;;;;;2.25;0.50;;;11.10;99.90;;;;;;5014932;28;20052;-80
2023/03/10 12:12:49;;;;;;;0.32;0.32;;;11.10;99.90;;;;;;5016466;28;20046;-81
2023/03/10 12:15:22;;;;;;;1.48;0.30;;;11.10;99.90;;;;;;5013201;28;20057;-80
2023/03/10 12:17:51;;;;;;;0.20;0.20;;;11.20;99.90;;;;;;5006172;28;20046;-80
2023/03/10 12:20:18;;;;;;;2.20;0.30;;;11.20;99.90;;;;;;5005798;28;20048;-80
2023/03/10 12:22:59;;;;;;;1.85;0.68;;;11.20;99.90;;;;;;5016411;28;20413;-80
2023/03/10 12:25:29;;;;;;;0.55;0.30;;;11.20;99.90;;;;;;5018560;28;20061;-81
2023/03/10 12:28:21;;;;;;;1.80;0.40;;;11.30;99.90;;;;;;5014922;28;20469;-82
2023/03/10 12:30:55;;;;;;;0.63;0.30;;;11.20;99.90;;;;;;5014783;28;20137;-81
2023/03/10 12:33:33;;;;;;;0.75;0.32;;;11.10;99.90;;;;;;5016937;28;20052;-81
2023/03/10 12:36:15;;;;;;;0.20;0.20;;;11.10;99.90;;;;;;5013335;28;20038;-80
2023/03/10 12:38:47;;;;;;;0.60;0.50;;;11.00;99.90;;;;;;5014348;28;20056;-83
2023/03/10 12:41:47;;;;;;;0.52;0.40;;;11.10;99.90;;;;;;5015201;28;20045;-83
2023/03/10 12:44:35;;;;;;;1.30;0.50;;;11.00;99.90;;;;;;5018526;28;20075;-81
2023/03/10 12:47:08;;;;;;;0.70;0.47;;;10.90;99.90;;;;;;5008110;28;20052;-82
2023/03/10 12:49:46;;;;;;;1.83;0.60;;;10.90;99.90;;;;;;5011563;28;20065;-82
2023/03/10 12:52:25;;;;;;;0.47;0.32;;;10.90;99.90;;;;;;5012093;28;20056;-81
2023/03/10 12:55:23;;;;;;;1.27;0.55;;;10.90;99.90;;;;;;5012088;28;20109;-82
2023/03/10 12:58:10;;;;;;;0.75;0.50;;;10.90;99.90;;;;;;5009270;28;20053;-81
2023/03/10 13:00:52;;;;;;;0.57;0.50;;;10.80;99.90;;;;;;5025751;28;20050;-82
2023/03/10 13:03:19;;;;;;;1.20;0.50;;;10.80;99.90;;;;;;5012314;28;20060;-82
2023/03/10 13:06:04;;;;;;;0.40;0.40;;;10.80;99.90;;;;;;5015632;28;20391;-79